Terminal Aerodrome Forecast
Issued by NWS

Current Version | Previous Version | Text Only | Print | Product List | Glossary On
Versions: 1 2 3 4 5 6 7 8 9 10 11 12 13 14 15 16 17 18 19 20 21 22 23 24 25
000 FTUS41 KOKX 200200 AAA TAFHPN TAF AMD KHPN 200225Z 2002/2024 35008KT P6SM SCT030 TEMPO 2003/2006 BKN030 FM200600 VRB05KT P6SM BKN025 AMD NOT SKED=

USA.gov is the U.S. government's official web portal to all federal, state and local government web resources and services.